createdAt,value
2024-01-04T00:01:29.853Z,98186.59
2024-01-04T00:06:41.278Z,98190.95
2024-01-04T00:11:47.083Z,98192.86
2024-01-04T00:16:52.714Z,98197.14
2024-01-04T00:21:58.442Z,98196.44
2024-01-04T00:27:04.398Z,98198.16
2024-01-04T00:32:10.390Z,98195.70
2024-01-04T00:37:16.011Z,98201.89
2024-01-04T00:42:21.556Z,98202.03
2024-01-04T00:47:27.266Z,98208.06
2024-01-04T00:52:32.826Z,98209.23
2024-01-04T00:57:38.369Z,98210.80
2024-01-04T01:02:44.867Z,98210.37
2024-01-04T01:07:51.310Z,98207.80
2024-01-04T01:12:57.154Z,98205.66
2024-01-04T01:18:03.196Z,98205.50
2024-01-04T01:23:08.792Z,98204.60
2024-01-04T01:28:16.315Z,98207.77
2024-01-04T01:33:23.554Z,98212.58
2024-01-04T01:38:29.458Z,98216.48
2024-01-04T01:43:35.126Z,98219.64
2024-01-04T01:48:41.118Z,98222.45
2024-01-04T01:53:47.999Z,98222.34
2024-01-04T01:58:54.044Z,98223.59
2024-01-04T02:03:59.864Z,98221.56
2024-01-04T02:09:05.926Z,98218.77
2024-01-04T02:14:11.616Z,98217.89
2024-01-04T02:19:17.756Z,98221.30
2024-01-04T02:24:23.712Z,98215.71
2024-01-04T02:29:29.472Z,98213.92
2024-01-04T02:34:35.465Z,98214.71
2024-01-04T02:39:41.193Z,98214.23
2024-01-04T02:44:46.927Z,98208.33
2024-01-04T02:49:53.801Z,98199.73
2024-01-04T02:54:59.337Z,98202.30
2024-01-04T03:00:07.180Z,98196.41
2024-01-04T03:05:12.874Z,98192.61
2024-01-04T03:10:18.766Z,98198.05
2024-01-04T03:15:24.723Z,98197.58
2024-01-04T03:20:30.309Z,98196.05
2024-01-04T03:25:36.025Z,98198.55
2024-01-04T03:30:41.684Z,98193.54
2024-01-04T03:35:47.447Z,98190.72
2024-01-04T03:40:53.284Z,98190.30
2024-01-04T03:45:58.770Z,98189.52
2024-01-04T03:51:05.060Z,98189.19
2024-01-04T03:56:10.986Z,98185.84
2024-01-04T04:01:17.749Z,98183.42
2024-01-04T04:06:24.013Z,98181.02
2024-01-04T04:11:29.983Z,98176.46
2024-01-04T04:16:39.967Z,98174.73
2024-01-04T04:21:45.630Z,98172.78
2024-01-04T04:26:51.542Z,98171.84
2024-01-04T04:31:57.502Z,98174.96
2024-01-04T04:37:04.297Z,98174.18
2024-01-04T04:42:10.142Z,98172.05
2024-01-04T04:47:15.791Z,98169.82
2024-01-04T04:52:21.471Z,98173.46
2024-01-04T04:57:27.075Z,98174.16
2024-01-04T05:02:32.885Z,98174.16
2024-01-04T05:07:38.641Z,98179.59
2024-01-04T05:12:45.183Z,98183.58
2024-01-04T05:17:51.117Z,98182.07
2024-01-04T05:22:58.333Z,98184.67
2024-01-04T05:28:03.991Z,98178.27
2024-01-04T05:33:10.001Z,98185.85
2024-01-04T05:38:15.788Z,98187.41
2024-01-04T05:43:21.785Z,98191.67
2024-01-04T05:48:27.822Z,98196.12
2024-01-04T05:53:34.051Z,98199.98
2024-01-04T05:58:39.597Z,98202.31
2024-01-04T06:03:45.295Z,98209.21
2024-01-04T06:08:51.013Z,98205.17
2024-01-04T06:13:56.825Z,98210.63
2024-01-04T06:19:02.765Z,98213.74
2024-01-04T06:24:08.886Z,98217.64
2024-01-04T06:29:14.945Z,98217.77
2024-01-04T06:34:21.252Z,98215.35
2024-01-04T06:39:29.187Z,98214.13
2024-01-04T06:44:41.595Z,98212.48
2024-01-04T06:49:58.031Z,98209.54
2024-01-04T06:55:11.279Z,98210.52
2024-01-04T07:00:18.305Z,98214.63
2024-01-04T07:05:24.007Z,98214.67
2024-01-04T07:10:30.028Z,98212.49
2024-01-04T07:15:35.742Z,98208.17
2024-01-04T07:20:42.654Z,98207.73
2024-01-04T07:25:48.407Z,98209.56
2024-01-04T07:30:54.081Z,98207.70
2024-01-04T07:36:00.762Z,98209.98
2024-01-04T07:41:07.808Z,98209.08
2024-01-04T07:46:13.397Z,98208.76
2024-01-04T07:51:19.251Z,98204.84
2024-01-04T07:56:25.100Z,98208.83
2024-01-04T08:01:30.811Z,98214.45
2024-01-04T08:06:36.823Z,98213.55
2024-01-04T08:11:42.731Z,98212.20
2024-01-04T08:16:48.779Z,98213.77
2024-01-04T08:21:54.863Z,98214.80
2024-01-04T08:27:01.039Z,98219.27
2024-01-04T08:32:08.013Z,98220.18
2024-01-04T08:37:15.882Z,98225.65
2024-01-04T08:42:22.081Z,98228.23
2024-01-04T08:47:27.742Z,98228.24
2024-01-04T08:52:33.654Z,98228.10
2024-01-04T08:57:39.531Z,98231.52
2024-01-04T09:02:47.083Z,98228.66
2024-01-04T09:07:52.972Z,98229.44
2024-01-04T09:12:58.481Z,98233.10
2024-01-04T09:18:04.628Z,98230.14
2024-01-04T09:23:11.025Z,98235.91
2024-01-04T09:28:16.795Z,98234.36
2024-01-04T09:33:25.632Z,98239.27
2024-01-04T09:38:33.600Z,98235.95
2024-01-04T09:43:42.245Z,98238.92
2024-01-04T09:48:54.841Z,98235.38
2024-01-04T09:54:01.142Z,98231.56
2024-01-04T09:59:06.973Z,98233.61
2024-01-04T10:04:14.294Z,98236.52
2024-01-04T10:09:28.115Z,98236.19
2024-01-04T10:14:34.578Z,98231.03
2024-01-04T10:19:41.804Z,98230.82
2024-01-04T10:24:48.406Z,98235.60
2024-01-04T10:30:06.188Z,98237.50
2024-01-04T10:35:12.290Z,98241.52
2024-01-04T10:40:20.762Z,98241.77
2024-01-04T10:45:31.074Z,98240.30
2024-01-04T10:50:40.195Z,98236.88
2024-01-04T10:55:48.171Z,98236.92
2024-01-04T11:00:55.209Z,98236.71
2024-01-04T11:06:02.126Z,98236.60
2024-01-04T11:11:08.601Z,98236.27
2024-01-04T11:16:26.333Z,98231.65
2024-01-04T11:22:04.855Z,98232.41
2024-01-04T11:27:15.289Z,98228.42
2024-01-04T11:32:21.588Z,98225.38
2024-01-04T11:37:27.521Z,98227.26
2024-01-04T11:42:38.197Z,98225.56
2024-01-04T11:47:46.056Z,98229.40
2024-01-04T11:53:01.964Z,98228.95
2024-01-04T11:58:13.050Z,98232.31
2024-01-04T12:03:24.205Z,98228.88
2024-01-04T12:08:32.299Z,98225.93
2024-01-04T12:13:38.686Z,98228.85
2024-01-04T12:18:44.697Z,98228.36
2024-01-04T12:23:51.086Z,98230.40
2024-01-04T12:28:57.868Z,98229.89
2024-01-04T12:34:03.824Z,98232.91
2024-01-04T12:39:11.869Z,98237.21
2024-01-04T12:44:18.689Z,98238.91
2024-01-04T12:49:25.708Z,98238.23
2024-01-04T12:54:31.878Z,98239.91
2024-01-04T12:59:38.233Z,98240.62
2024-01-04T13:04:44.506Z,98245.23
2024-01-04T13:09:50.015Z,98244.64
2024-01-04T13:14:57.683Z,98248.28
2024-01-04T13:20:08.742Z,98250.40
2024-01-04T13:25:13.354Z,98253.30
2024-01-04T13:30:20.403Z,98262.02
2024-01-04T13:35:26.175Z,98259.48
2024-01-04T13:40:31.836Z,98262.17
2024-01-04T13:45:37.585Z,98271.76
2024-01-04T13:50:44.788Z,98277.20
2024-01-04T13:55:50.425Z,98280.80
2024-01-04T14:00:56.186Z,98286.08
2024-01-04T14:06:02.515Z,98284.36
2024-01-04T14:11:09.611Z,98288.77
2024-01-04T14:16:15.440Z,98287.95
2024-01-04T14:21:21.395Z,98291.16
2024-01-04T14:26:28.396Z,98292.84
2024-01-04T14:31:34.458Z,98295.02
2024-01-04T14:36:41.425Z,98301.10
2024-01-04T14:41:46.942Z,98304.20
2024-01-04T14:46:52.723Z,98311.20
2024-01-04T14:51:59.280Z,98314.14
2024-01-04T14:57:05.864Z,98309.70
2024-01-04T15:02:12.087Z,98310.23
2024-01-04T15:07:18.482Z,98311.71
2024-01-04T15:12:26.613Z,98313.44
2024-01-04T15:17:32.289Z,98317.31
2024-01-04T15:22:38.646Z,98316.41
2024-01-04T15:27:45.231Z,98317.44
2024-01-04T15:32:51.050Z,98313.91
2024-01-04T15:37:56.812Z,98319.93
2024-01-04T15:43:03.374Z,98317.23
2024-01-04T15:48:09.195Z,98321.48
2024-01-04T15:53:14.919Z,98318.63
2024-01-04T15:58:20.551Z,98312.30
2024-01-04T16:03:27.146Z,98311.11
2024-01-04T16:08:35.317Z,98306.58
2024-01-04T16:13:42.047Z,98312.25
2024-01-04T16:18:48.204Z,98312.48
2024-01-04T16:23:54.213Z,98338.75
2024-01-04T16:29:00.053Z,98342.33
2024-01-04T16:34:05.690Z,98358.95
2024-01-04T16:39:13.114Z,98371.83
2024-01-04T16:44:18.901Z,98382.23
2024-01-04T16:49:24.604Z,98379.23
2024-01-04T16:54:30.511Z,98390.14
2024-01-04T16:59:36.660Z,98397.15
2024-01-04T17:04:42.811Z,98405.84
2024-01-04T17:09:48.549Z,98413.76
2024-01-04T17:14:55.067Z,98426.62
2024-01-04T17:20:00.958Z,98430.22
2024-01-04T17:25:07.889Z,98434.59
2024-01-04T17:30:24.578Z,98435.60
2024-01-04T17:35:32.461Z,98434.21
2024-01-04T17:40:38.551Z,98443.55
2024-01-04T17:45:44.487Z,98453.02
2024-01-04T17:50:50.418Z,98459.83
2024-01-04T17:55:56.322Z,98474.47
2024-01-04T18:01:02.069Z,98480.50
2024-01-04T18:06:08.488Z,98489.52
2024-01-04T18:11:14.106Z,98490.98
2024-01-04T18:16:19.796Z,98498.28
2024-01-04T18:21:25.643Z,98502.41
2024-01-04T18:26:31.763Z,98505.13
2024-01-04T18:38:47.864Z,98521.29
2024-01-04T18:43:59.942Z,98528.14
2024-01-04T18:49:05.551Z,98538.30
2024-01-04T18:54:11.268Z,98541.27
2024-01-04T18:59:18.954Z,98544.42
2024-01-04T19:04:25.269Z,98547.73
2024-01-04T19:09:31.103Z,98551.61
2024-01-04T19:14:36.690Z,98568.14
2024-01-04T19:19:43.551Z,98577.04
2024-01-04T19:24:49.482Z,98588.73
2024-01-04T19:29:55.018Z,98595.35
2024-01-04T19:35:01.031Z,98606.52
2024-01-04T19:40:08.233Z,98615.66
2024-01-04T19:45:13.818Z,98622.09
2024-01-04T19:50:19.533Z,98630.41
2024-01-04T19:55:24.771Z,98639.23
2024-01-04T20:00:30.861Z,98643.69
2024-01-04T20:05:36.526Z,98661.52
2024-01-04T20:10:42.004Z,98665.29
2024-01-04T20:15:47.503Z,98673.51
2024-01-04T20:20:53.671Z,98680.31
2024-01-04T20:25:59.534Z,98684.52
2024-01-04T20:31:09.345Z,98693.71
2024-01-04T20:36:15.161Z,98703.24
2024-01-04T20:41:20.671Z,98713.59
2024-01-04T20:46:27.734Z,98722.66
2024-01-04T20:51:33.775Z,98754.50
2024-01-04T20:56:40.387Z,98789.55
2024-01-04T21:08:06.376Z,98832.14
2024-01-04T21:13:11.981Z,98852.73
2024-01-04T21:18:17.993Z,98879.39
2024-01-04T21:23:24.565Z,98902.93
2024-01-04T21:28:30.461Z,98926.17
2024-01-04T21:33:36.758Z,98953.23
2024-01-04T21:38:42.647Z,98978.11
2024-01-04T21:43:49.141Z,99000.39
2024-01-04T21:48:55.145Z,99014.55
2024-01-04T21:54:01.147Z,99036.50
2024-01-04T21:59:07.979Z,99056.74
2024-01-04T22:04:14.406Z,99064.66
2024-01-04T22:09:20.170Z,99085.67
2024-01-04T22:14:27.817Z,99109.40
2024-01-04T22:19:33.501Z,99132.56
2024-01-04T22:24:39.006Z,99151.48
2024-01-04T22:29:44.801Z,99178.56
2024-01-04T22:34:50.437Z,99202.02
2024-01-04T22:39:56.233Z,99216.64
2024-01-04T22:45:01.987Z,99240.60
2024-01-04T22:50:09.456Z,99272.57
2024-01-04T22:55:15.328Z,99280.84
2024-01-04T23:00:22.460Z,99289.83
2024-01-04T23:05:28.365Z,99298.16
2024-01-04T23:10:34.130Z,99317.73
2024-01-04T23:15:39.954Z,99337.63
2024-01-04T23:20:45.943Z,99351.34
2024-01-04T23:25:51.714Z,99363.23
2024-01-04T23:30:57.386Z,99373.95
2024-01-04T23:36:03.345Z,99382.14
2024-01-04T23:41:09.023Z,99396.64
2024-01-04T23:46:14.665Z,99411.94
2024-01-04T23:51:20.837Z,99416.16
2024-01-04T23:56:26.914Z,99432.02
